Time;durP1;ratioP1;P1;durP2;ratioP2;P2;SDS_P1;SDS_P2;PMS_P1;PMS_P2;Temp;Humidity;BMP_temperature;BMP_pressure;BME280_temperature;BME280_humidity;BME280_pressure;Samples;Min_cycle;Max_cycle;Signal;HPM_P1;HPM_P2
2019/07/23 00:02:08;;;;;;;3.85;2.11;;;;;;;22.86;56.75;101125.95;;;;-56
2019/07/23 00:05:08;;;;;;;2.41;1.92;;;;;;;22.85;56.73;101126.11;;;;-57
2019/07/23 00:08:08;;;;;;;2.77;1.91;;;;;;;22.85;56.76;101127.70;;;;-56
2019/07/23 00:11:08;;;;;;;3.20;1.90;;;;;;;22.84;56.73;101128.33;;;;-56
2019/07/23 00:14:08;;;;;;;2.37;1.98;;;;;;;22.85;56.76;101131.97;;;;-56
2019/07/23 00:17:07;;;;;;;2.61;1.90;;;;;;;22.84;56.76;101132.09;;;;-55
2019/07/23 00:20:07;;;;;;;2.13;1.82;;;;;;;22.84;56.73;101131.76;;;;-55
2019/07/23 00:23:07;;;;;;;2.91;1.91;;;;;;;22.84;56.74;101135.63;;;;-56
2019/07/23 00:26:08;;;;;;;2.41;1.87;;;;;;;22.84;56.73;101136.23;;;;-55
2019/07/23 00:29:08;;;;;;;2.25;1.91;;;;;;;22.83;56.74;101135.53;;;;-56
2019/07/23 00:32:08;;;;;;;3.10;1.99;;;;;;;22.82;56.75;101137.67;;;;-56
2019/07/23 00:35:08;;;;;;;2.83;1.90;;;;;;;22.83;56.75;101139.23;;;;-57
2019/07/23 00:38:07;;;;;;;2.77;1.81;;;;;;;22.82;56.77;101140.38;;;;-56
2019/07/23 00:41:08;;;;;;;2.07;1.80;;;;;;;22.83;56.70;101138.45;;;;-56
2019/07/23 00:44:08;;;;;;;2.11;1.88;;;;;;;22.81;56.74;101135.61;;;;-56
2019/07/23 00:47:08;;;;;;;2.99;1.93;;;;;;;22.81;56.79;101131.91;;;;-56
2019/07/23 00:50:08;;;;;;;2.37;1.87;;;;;;;22.81;56.76;101130.89;;;;-56
2019/07/23 00:53:08;;;;;;;2.68;1.96;;;;;;;22.80;56.79;101128.50;;;;-57
2019/07/23 00:56:08;;;;;;;1.93;1.77;;;;;;;22.80;56.76;101134.33;;;;-56
2019/07/23 00:59:07;;;;;;;2.28;1.91;;;;;;;22.80;56.75;101132.70;;;;-56
2019/07/23 01:05:07;;;;;;;2.52;1.80;;;;;;;22.79;56.74;101133.00;;;;-55
2019/07/23 01:08:08;;;;;;;2.54;2.03;;;;;;;22.79;56.76;101132.23;;;;-56
2019/07/23 01:11:08;;;;;;;2.47;1.86;;;;;;;22.79;56.75;101126.94;;;;-56
2019/07/23 01:14:07;;;;;;;2.49;1.96;;;;;;;22.78;56.74;101124.54;;;;-56
2019/07/23 01:17:08;;;;;;;1.99;1.73;;;;;;;22.78;56.74;101129.15;;;;-57
2019/07/23 01:20:07;;;;;;;1.89;1.71;;;;;;;22.78;56.74;101126.49;;;;-56
2019/07/23 01:23:08;;;;;;;2.91;1.95;;;;;;;22.78;56.76;101128.34;;;;-57
2019/07/23 01:26:08;;;;;;;2.21;1.90;;;;;;;22.78;56.73;101125.72;;;;-56
2019/07/23 01:29:08;;;;;;;2.19;1.99;;;;;;;22.78;56.71;101128.14;;;;-56
2019/07/23 01:32:08;;;;;;;3.76;1.80;;;;;;;22.77;56.75;101123.09;;;;-56
2019/07/23 01:35:08;;;;;;;2.54;1.95;;;;;;;22.77;56.75;101121.84;;;;-56
2019/07/23 01:38:07;;;;;;;2.85;1.80;;;;;;;22.77;56.74;101118.44;;;;-56
2019/07/23 01:41:08;;;;;;;2.17;1.89;;;;;;;22.76;56.70;101120.79;;;;-56
2019/07/23 01:44:07;;;;;;;2.45;2.00;;;;;;;22.76;56.75;101122.30;;;;-55
2019/07/23 01:47:07;;;;;;;2.03;1.81;;;;;;;22.76;56.72;101117.15;;;;-56
2019/07/23 01:50:07;;;;;;;2.28;1.84;;;;;;;22.75;56.71;101120.41;;;;-56
2019/07/23 01:53:07;;;;;;;2.09;1.87;;;;;;;22.76;56.71;101121.86;;;;-56
2019/07/23 01:56:07;;;;;;;2.49;1.89;;;;;;;22.76;56.72;101119.64;;;;-56
2019/07/23 01:59:07;;;;;;;2.24;1.93;;;;;;;22.75;56.71;101121.25;;;;-57
2019/07/23 02:02:08;;;;;;;2.24;1.90;;;;;;;22.76;56.67;101119.91;;;;-56
2019/07/23 02:05:08;;;;;;;1.87;1.77;;;;;;;22.75;56.71;101115.59;;;;-56
2019/07/23 02:08:08;;;;;;;2.63;2.03;;;;;;;22.75;56.68;101114.38;;;;-56
2019/07/23 02:11:11;;;;;;;1.95;1.69;;;;;;;22.75;56.72;101108.48;;;;-57
2019/07/23 02:14:08;;;;;;;2.29;1.91;;;;;;;22.74;56.70;101109.05;;;;-57
2019/07/23 02:17:08;;;;;;;3.31;1.91;;;;;;;22.74;56.70;101112.28;;;;-56
2019/07/23 02:20:07;;;;;;;2.40;1.78;;;;;;;22.73;56.73;101112.92;;;;-57
2019/07/23 02:23:07;;;;;;;1.95;1.82;;;;;;;22.73;56.72;101108.88;;;;-56
2019/07/23 02:26:07;;;;;;;2.05;1.84;;;;;;;22.74;56.71;101111.41;;;;-56
2019/07/23 02:29:07;;;;;;;2.52;1.92;;;;;;;22.73;56.67;101116.95;;;;-56
2019/07/23 02:32:08;;;;;;;2.41;1.93;;;;;;;22.73;56.69;101115.41;;;;-56
2019/07/23 02:35:07;;;;;;;2.21;2.01;;;;;;;22.72;56.69;101120.52;;;;-56
2019/07/23 02:38:08;;;;;;;3.14;1.76;;;;;;;22.72;56.67;101115.64;;;;-56
2019/07/23 02:41:07;;;;;;;2.40;1.91;;;;;;;22.72;56.68;101112.10;;;;-57
2019/07/23 02:44:07;;;;;;;2.13;1.86;;;;;;;22.72;56.71;101114.80;;;;-56
2019/07/23 02:47:07;;;;;;;2.10;1.90;;;;;;;22.72;56.67;101113.91;;;;-55
2019/07/23 02:50:07;;;;;;;2.09;1.83;;;;;;;22.71;56.70;101112.33;;;;-56
2019/07/23 02:53:08;;;;;;;2.10;1.90;;;;;;;22.72;56.70;101115.03;;;;-56
2019/07/23 02:56:08;;;;;;;2.05;1.90;;;;;;;22.71;56.67;101118.22;;;;-56
2019/07/23 02:59:07;;;;;;;2.02;1.81;;;;;;;22.71;56.69;101121.89;;;;-56
2019/07/23 03:02:08;;;;;;;2.21;1.98;;;;;;;22.71;56.67;101120.92;;;;-57
2019/07/23 03:05:08;;;;;;;1.97;1.75;;;;;;;22.71;56.72;101118.75;;;;-56
2019/07/23 03:08:08;;;;;;;1.97;1.77;;;;;;;22.70;56.70;101118.41;;;;-56
2019/07/23 03:11:08;;;;;;;2.14;1.94;;;;;;;22.71;56.66;101120.10;;;;-56
2019/07/23 03:14:07;;;;;;;2.63;1.83;;;;;;;22.70;56.68;101120.37;;;;-55
2019/07/23 03:17:08;;;;;;;2.54;2.01;;;;;;;22.70;56.65;101122.02;;;;-56
2019/07/23 03:20:07;;;;;;;2.20;2.00;;;;;;;22.70;56.68;101126.16;;;;-56
2019/07/23 03:23:07;;;;;;;2.17;1.80;;;;;;;22.70;56.64;101124.13;;;;-55
2019/07/23 03:26:08;;;;;;;2.09;1.81;;;;;;;22.69;56.65;101124.50;;;;-57
2019/07/23 03:29:07;;;;;;;2.45;1.89;;;;;;;22.69;56.66;101125.72;;;;-55
2019/07/23 03:32:08;;;;;;;2.32;1.97;;;;;;;22.69;56.63;101122.92;;;;-56
2019/07/23 03:35:08;;;;;;;2.01;1.86;;;;;;;22.69;56.62;101131.34;;;;-56
2019/07/23 03:38:07;;;;;;;2.17;1.96;;;;;;;22.69;56.64;101130.05;;;;-56
2019/07/23 03:41:08;;;;;;;2.03;1.90;;;;;;;22.69;56.66;101134.53;;;;-56
2019/07/23 03:44:08;;;;;;;2.15;1.95;;;;;;;22.68;56.63;101136.28;;;;-56
2019/07/23 03:47:07;;;;;;;2.30;1.89;;;;;;;22.69;56.62;101134.87;;;;-56
2019/07/23 03:50:08;;;;;;;2.03;1.85;;;;;;;22.68;56.64;101133.31;;;;-56
2019/07/23 03:53:08;;;;;;;4.83;4.11;;;;;;;22.47;53.55;101130.06;;;;-56
2019/07/23 03:56:07;;;;;;;6.03;4.78;;;;;;;22.19;53.33;101129.02;;;;-57
2019/07/23 03:59:07;;;;;;;6.86;4.91;;;;;;;21.95;53.83;101131.27;;;;-56
2019/07/23 04:02:07;;;;;;;6.70;5.03;;;;;;;21.80;54.35;101134.63;;;;-57
2019/07/23 04:05:07;;;;;;;7.05;4.87;;;;;;;21.77;54.58;101138.42;;;;-57
2019/07/23 04:08:07;;;;;;;6.33;5.21;;;;;;;21.72;54.58;101135.94;;;;-56
2019/07/23 04:11:08;;;;;;;5.73;5.17;;;;;;;21.62;54.67;101138.56;;;;-57
2019/07/23 04:14:07;;;;;;;9.89;4.97;;;;;;;21.68;54.95;101137.60;;;;-59
2019/07/23 04:17:07;;;;;;;6.06;4.97;;;;;;;21.52;55.20;101143.65;;;;-59
2019/07/23 04:20:08;;;;;;;6.73;5.09;;;;;;;21.50;55.27;101143.66;;;;-59
2019/07/23 04:23:07;;;;;;;6.30;5.35;;;;;;;21.40;55.42;101144.12;;;;-60
2019/07/23 04:26:07;;;;;;;5.33;4.76;;;;;;;21.40;55.51;101144.09;;;;-60
2019/07/23 04:29:07;;;;;;;5.89;4.69;;;;;;;21.37;55.36;101139.61;;;;-60
2019/07/23 04:32:07;;;;;;;7.11;4.94;;;;;;;21.38;55.23;101146.74;;;;-60
2019/07/23 04:35:08;;;;;;;5.67;4.60;;;;;;;21.37;55.27;101147.41;;;;-60
2019/07/23 04:38:07;;;;;;;6.79;4.72;;;;;;;21.32;55.37;101142.80;;;;-59
2019/07/23 04:41:07;;;;;;;7.56;4.77;;;;;;;21.31;55.31;101145.00;;;;-60
2019/07/23 04:44:07;;;;;;;6.54;4.82;;;;;;;21.31;55.39;101144.49;;;;-60
2019/07/23 04:47:07;;;;;;;6.61;4.91;;;;;;;21.30;55.53;101137.33;;;;-60
2019/07/23 04:50:07;;;;;;;5.85;4.79;;;;;;;21.33;55.54;101135.63;;;;-60
2019/07/23 04:53:08;;;;;;;7.22;4.88;;;;;;;21.34;55.46;101138.46;;;;-59
2019/07/23 04:56:07;;;;;;;7.11;4.63;;;;;;;21.31;55.64;101135.85;;;;-60
2019/07/23 04:59:08;;;;;;;5.95;4.70;;;;;;;21.32;55.62;101131.94;;;;-60
2019/07/23 05:02:07;;;;;;;5.16;4.67;;;;;;;21.37;55.54;101130.66;;;;-60
2019/07/23 05:05:07;;;;;;;6.87;4.87;;;;;;;21.36;55.60;101127.63;;;;-60
2019/07/23 05:08:08;;;;;;;5.75;4.73;;;;;;;21.38;55.68;101128.92;;;;-60
2019/07/23 05:11:08;;;;;;;6.31;5.00;;;;;;;21.39;55.72;101128.41;;;;-58
2019/07/23 05:14:08;;;;;;;10.04;5.18;;;;;;;21.45;55.36;101127.34;;;;-59
2019/07/23 05:17:07;;;;;;;5.25;4.75;;;;;;;21.46;55.35;101125.11;;;;-59
2019/07/23 05:20:07;;;;;;;5.42;4.94;;;;;;;21.49;55.62;101127.14;;;;-58
2019/07/23 05:23:07;;;;;;;5.99;4.92;;;;;;;21.51;55.82;101124.50;;;;-59
2019/07/23 05:26:07;;;;;;;5.63;4.90;;;;;;;21.54;55.68;101123.30;;;;-58
2019/07/23 05:29:07;;;;;;;5.42;4.61;;;;;;;21.57;55.64;101119.23;;;;-57
2019/07/23 05:32:08;;;;;;;5.77;4.97;;;;;;;21.59;55.85;101114.77;;;;-57
2019/07/23 05:35:08;;;;;;;7.05;4.91;;;;;;;21.61;55.83;101113.11;;;;-59
2019/07/23 05:38:08;;;;;;;7.12;4.87;;;;;;;21.64;55.64;101106.48;;;;-59
2019/07/23 05:41:07;;;;;;;5.98;4.93;;;;;;;21.67;55.63;101109.99;;;;-58
2019/07/23 05:44:08;;;;;;;6.22;5.07;;;;;;;21.71;55.63;101112.59;;;;-57
2019/07/23 05:47:07;;;;;;;5.78;4.86;;;;;;;21.74;55.60;101113.17;;;;-58
2019/07/23 05:50:20;;;;;;;5.77;4.68;;;;;;;21.76;55.58;101113.59;;;;-59
2019/07/23 05:53:07;;;;;;;5.63;4.63;;;;;;;21.80;55.57;101111.09;;;;-59
2019/07/23 05:56:08;;;;;;;5.22;4.72;;;;;;;21.82;55.49;101105.52;;;;-58
2019/07/23 05:59:07;;;;;;;6.22;4.95;;;;;;;21.86;55.46;101110.35;;;;-59
2019/07/23 06:02:07;;;;;;;13.92;5.45;;;;;;;21.88;55.76;101109.90;;;;-57
2019/07/23 06:05:07;;;;;;;9.81;5.05;;;;;;;21.93;55.80;101107.53;;;;-58
2019/07/23 06:08:08;;;;;;;9.89;4.65;;;;;;;21.99;55.82;101111.47;;;;-57
2019/07/23 06:11:07;;;;;;;7.31;4.82;;;;;;;22.01;55.79;101113.95;;;;-58
2019/07/23 06:14:08;;;;;;;5.66;4.71;;;;;;;22.04;55.77;101111.29;;;;-59
2019/07/23 06:17:08;;;;;;;7.21;4.49;;;;;;;22.07;55.81;101110.75;;;;-57
2019/07/23 06:20:07;;;;;;;8.99;4.76;;;;;;;22.09;55.88;101111.28;;;;-51
2019/07/23 06:23:07;;;;;;;7.45;4.78;;;;;;;22.12;56.02;101113.16;;;;-54
2019/07/23 06:26:07;;;;;;;10.15;4.65;;;;;;;22.16;55.96;101115.35;;;;-56
2019/07/23 06:29:07;;;;;;;6.14;4.37;;;;;;;22.18;55.90;101114.27;;;;-52
2019/07/23 06:32:07;;;;;;;6.17;4.89;;;;;;;22.21;55.85;101113.45;;;;-59
2019/07/23 06:35:08;;;;;;;8.23;4.61;;;;;;;22.23;55.87;101108.73;;;;-54
2019/07/23 06:38:08;;;;;;;9.02;4.25;;;;;;;22.25;55.94;101105.55;;;;-57
2019/07/23 06:41:07;;;;;;;9.09;4.67;;;;;;;22.29;55.88;101101.58;;;;-55
2019/07/23 06:44:08;;;;;;;9.79;4.53;;;;;;;22.28;56.09;101094.57;;;;-56
2019/07/23 06:47:07;;;;;;;8.66;4.79;;;;;;;22.32;56.00;101093.23;;;;-60
2019/07/23 06:50:07;;;;;;;6.50;4.45;;;;;;;22.33;55.83;101094.45;;;;-56
2019/07/23 06:53:08;;;;;;;10.85;4.52;;;;;;;22.35;55.97;101089.36;;;;-54
2019/07/23 06:56:07;;;;;;;7.52;4.59;;;;;;;22.36;55.89;101081.89;;;;-55
2019/07/23 06:59:07;;;;;;;7.04;4.42;;;;;;;22.36;55.93;101081.16;;;;-59
2019/07/23 07:02:07;;;;;;;7.59;4.33;;;;;;;22.37;55.79;101081.77;;;;-61
2019/07/23 07:05:07;;;;;;;8.13;4.41;;;;;;;22.37;55.95;101083.38;;;;-61
2019/07/23 07:08:08;;;;;;;9.98;4.15;;;;;;;22.37;56.00;101084.73;;;;-61
2019/07/23 07:11:08;;;;;;;6.37;4.37;;;;;;;22.36;56.03;101081.83;;;;-61
2019/07/23 07:14:07;;;;;;;5.27;4.21;;;;;;;22.36;56.08;101086.20;;;;-61
2019/07/23 07:17:07;;;;;;;6.21;4.35;;;;;;;22.37;55.99;101085.73;;;;-60
2019/07/23 07:20:08;;;;;;;5.23;4.21;;;;;;;22.36;56.02;101082.50;;;;-61
2019/07/23 07:23:07;;;;;;;6.59;4.26;;;;;;;22.37;55.95;101080.42;;;;-56
2019/07/23 07:26:07;;;;;;;6.09;4.10;;;;;;;22.39;56.09;101077.20;;;;-56
2019/07/23 07:29:08;;;;;;;9.43;4.10;;;;;;;22.42;55.96;101080.13;;;;-59
2019/07/23 07:32:07;;;;;;;5.96;4.58;;;;;;;22.43;56.03;101075.13;;;;-59
2019/07/23 07:35:07;;;;;;;8.47;4.16;;;;;;;22.44;55.99;101077.80;;;;-57
2019/07/23 07:38:08;;;;;;;7.51;3.97;;;;;;;22.46;56.16;101073.47;;;;-55
2019/07/23 07:41:08;;;;;;;8.95;4.10;;;;;;;22.45;56.05;101074.02;;;;-55
2019/07/23 07:44:07;;;;;;;5.96;3.87;;;;;;;22.44;56.11;101072.47;;;;-55
2019/07/23 07:47:07;;;;;;;10.47;4.40;;;;;;;22.45;56.10;101076.38;;;;-57
2019/07/23 07:50:07;;;;;;;10.94;4.30;;;;;;;22.45;56.13;101074.77;;;;-57
2019/07/23 07:53:08;;;;;;;7.11;4.27;;;;;;;22.45;56.29;101072.34;;;;-57
2019/07/23 07:56:08;;;;;;;10.90;4.21;;;;;;;22.47;56.33;101069.80;;;;-56
2019/07/23 07:59:08;;;;;;;8.79;4.26;;;;;;;22.49;56.27;101068.94;;;;-55
2019/07/23 08:02:07;;;;;;;6.11;3.96;;;;;;;22.51;56.59;101069.70;;;;-53
2019/07/23 08:05:07;;;;;;;5.15;4.01;;;;;;;22.52;56.66;101064.73;;;;-51
2019/07/23 08:08:08;;;;;;;8.33;4.03;;;;;;;22.54;56.57;101062.42;;;;-56
2019/07/23 08:11:08;;;;;;;5.78;3.80;;;;;;;22.55;56.71;101059.19;;;;-53
2019/07/23 08:14:07;;;;;;;6.26;4.04;;;;;;;22.56;57.10;101058.91;;;;-55
2019/07/23 08:17:07;;;;;;;6.91;3.82;;;;;;;22.58;56.84;101053.77;;;;-59
2019/07/23 08:20:07;;;;;;;7.23;3.98;;;;;;;22.60;56.94;101052.90;;;;-58
2019/07/23 08:23:07;;;;;;;5.05;3.88;;;;;;;22.61;56.85;101051.30;;;;-56
2019/07/23 08:26:08;;;;;;;7.15;3.87;;;;;;;22.62;56.88;101048.98;;;;-57
2019/07/23 08:29:07;;;;;;;6.97;4.02;;;;;;;22.64;57.10;101050.87;;;;-54
2019/07/23 08:32:07;;;;;;;7.28;3.99;;;;;;;22.64;57.04;101049.02;;;;-59
2019/07/23 08:35:07;;;;;;;7.90;3.86;;;;;;;22.65;56.96;101052.27;;;;-57
2019/07/23 08:38:08;;;;;;;6.92;3.84;;;;;;;22.66;57.00;101052.81;;;;-55
2019/07/23 08:41:07;;;;;;;5.53;3.67;;;;;;;22.66;57.10;101049.11;;;;-57
2019/07/23 08:44:07;;;;;;;6.41;3.90;;;;;;;22.68;57.07;101048.01;;;;-57
2019/07/23 08:47:07;;;;;;;6.55;3.68;;;;;;;22.68;57.08;101045.75;;;;-57
2019/07/23 08:50:07;;;;;;;9.80;3.87;;;;;;;22.68;57.06;101045.42;;;;-56
2019/07/23 08:53:07;;;;;;;6.83;3.60;;;;;;;22.68;56.98;101045.59;;;;-59
2019/07/23 08:56:07;;;;;;;6.03;3.74;;;;;;;22.70;57.14;101045.84;;;;-56
2019/07/23 08:59:07;;;;;;;4.81;3.81;;;;;;;22.71;57.04;101046.78;;;;-59
2019/07/23 09:02:07;;;;;;;5.15;3.67;;;;;;;22.72;57.24;101040.97;;;;-59
2019/07/23 09:05:07;;;;;;;13.18;4.02;;;;;;;22.73;57.17;101042.39;;;;-58
2019/07/23 09:08:07;;;;;;;7.19;3.63;;;;;;;22.73;56.97;101042.42;;;;-58
2019/07/23 09:11:07;;;;;;;8.09;4.03;;;;;;;22.74;56.88;101038.66;;;;-57
2019/07/23 09:14:08;;;;;;;4.99;3.79;;;;;;;22.74;56.92;101035.16;;;;-57
2019/07/23 09:17:07;;;;;;;9.43;3.72;;;;;;;22.75;56.95;101034.92;;;;-55
2019/07/23 09:20:07;;;;;;;7.10;3.65;;;;;;;22.77;56.77;101036.15;;;;-54
2019/07/23 09:23:08;;;;;;;6.06;3.40;;;;;;;22.77;56.90;101030.92;;;;-55
2019/07/23 09:26:07;;;;;;;7.33;4.13;;;;;;;22.78;56.83;101029.22;;;;-56
2019/07/23 09:29:07;;;;;;;6.14;3.77;;;;;;;22.78;56.82;101027.37;;;;-56
2019/07/23 09:32:07;;;;;;;7.01;3.81;;;;;;;22.79;57.03;101025.99;;;;-54
2019/07/23 09:35:07;;;;;;;7.99;3.47;;;;;;;22.81;56.89;101021.70;;;;-52
2019/07/23 09:38:07;;;;;;;6.74;3.72;;;;;;;22.82;56.84;101019.62;;;;-55
2019/07/23 09:41:07;;;;;;;8.07;3.58;;;;;;;22.84;57.11;101020.53;;;;-59
2019/07/23 09:44:08;;;;;;;7.69;3.77;;;;;;;22.85;56.66;101022.93;;;;-55
2019/07/23 09:47:07;;;;;;;10.78;3.64;;;;;;;22.84;56.97;101016.16;;;;-56
2019/07/23 09:50:07;;;;;;;8.17;3.66;;;;;;;22.85;56.94;101019.05;;;;-57
2019/07/23 09:53:07;;;;;;;6.23;3.88;;;;;;;22.86;56.98;101020.52;;;;-54
2019/07/23 09:56:07;;;;;;;6.65;3.61;;;;;;;22.86;56.86;101019.59;;;;-55
2019/07/23 09:59:08;;;;;;;5.24;3.51;;;;;;;22.87;56.87;101014.76;;;;-54
2019/07/23 10:02:08;;;;;;;6.28;3.51;;;;;;;22.87;56.91;101009.44;;;;-55
2019/07/23 10:05:07;;;;;;;6.86;3.68;;;;;;;22.88;56.82;101005.70;;;;-59
2019/07/23 10:08:07;;;;;;;9.66;3.65;;;;;;;22.89;56.92;101012.71;;;;-59
2019/07/23 10:11:07;;;;;;;7.71;3.63;;;;;;;22.88;56.84;101004.92;;;;-53
2019/07/23 10:14:08;;;;;;;9.03;3.63;;;;;;;22.88;56.82;100999.97;;;;-50
2019/07/23 10:17:07;;;;;;;12.13;3.95;;;;;;;22.89;56.98;101000.25;;;;-50
2019/07/23 10:20:07;;;;;;;8.61;3.60;;;;;;;22.89;56.83;100995.97;;;;-52
2019/07/23 10:23:08;;;;;;;8.41;3.37;;;;;;;22.90;56.84;100995.57;;;;-52
2019/07/23 10:26:08;;;;;;;8.68;3.42;;;;;;;22.90;56.73;100992.81;;;;-51
2019/07/23 10:29:07;;;;;;;9.67;3.71;;;;;;;22.90;56.78;100992.64;;;;-49
2019/07/23 10:32:07;;;;;;;6.43;3.50;;;;;;;22.91;56.85;100991.73;;;;-50
2019/07/23 10:35:07;;;;;;;6.27;3.50;;;;;;;22.91;56.82;100989.55;;;;-53
2019/07/23 10:38:07;;;;;;;5.36;3.24;;;;;;;22.91;56.64;100986.45;;;;-50
2019/07/23 10:41:07;;;;;;;5.49;3.37;;;;;;;22.93;56.70;100979.85;;;;-58
2019/07/23 10:44:07;;;;;;;5.77;3.36;;;;;;;22.91;56.58;100980.95;;;;-59
2019/07/23 10:47:07;;;;;;;5.20;3.38;;;;;;;22.90;56.60;100979.51;;;;-52
2019/07/23 10:50:07;;;;;;;6.17;3.30;;;;;;;22.90;56.54;100979.41;;;;-52
2019/07/23 10:53:07;;;;;;;5.81;3.41;;;;;;;22.89;56.47;100977.34;;;;-51
2019/07/23 10:56:07;;;;;;;5.79;3.27;;;;;;;22.87;56.62;100975.52;;;;-51
2019/07/23 10:59:08;;;;;;;8.03;3.53;;;;;;;22.89;56.58;100964.37;;;;-49
2019/07/23 11:02:07;;;;;;;5.16;3.43;;;;;;;22.89;56.58;100963.70;;;;-50
2019/07/23 11:05:08;;;;;;;7.12;3.52;;;;;;;22.88;56.57;100965.11;;;;-52
2019/07/23 11:08:07;;;;;;;5.10;3.14;;;;;;;22.90;56.55;100958.69;;;;-52
2019/07/23 11:11:07;;;;;;;3.65;3.24;;;;;;;22.91;56.48;100951.75;;;;-52
2019/07/23 11:14:08;;;;;;;7.92;3.17;;;;;;;22.90;56.61;100944.97;;;;-51
2019/07/23 11:17:08;;;;;;;4.60;3.13;;;;;;;22.91;56.49;100951.25;;;;-51
2019/07/23 11:20:08;;;;;;;4.85;3.15;;;;;;;22.92;56.58;100950.84;;;;-52
2019/07/23 11:23:07;;;;;;;4.90;3.01;;;;;;;22.95;56.55;100950.78;;;;-53
2019/07/23 11:26:07;;;;;;;5.97;3.39;;;;;;;22.95;56.50;100946.48;;;;-51
2019/07/23 11:29:07;;;;;;;5.15;3.14;;;;;;;22.95;56.45;100938.90;;;;-52
2019/07/23 11:32:07;;;;;;;5.24;3.23;;;;;;;22.94;56.50;100935.19;;;;-52
2019/07/23 11:35:08;;;;;;;7.02;3.31;;;;;;;22.95;56.56;100927.38;;;;-53
2019/07/23 11:38:08;;;;;;;4.53;3.33;;;;;;;22.95;56.44;100925.59;;;;-52
2019/07/23 11:41:08;;;;;;;6.39;3.07;;;;;;;22.97;56.52;100929.98;;;;-51
2019/07/23 11:44:07;;;;;;;5.33;3.26;;;;;;;22.97;56.53;100925.77;;;;-56
2019/07/23 11:47:07;;;;;;;5.43;3.09;;;;;;;22.97;56.55;100917.34;;;;-54
2019/07/23 11:50:07;;;;;;;5.11;3.23;;;;;;;22.98;56.56;100911.83;;;;-51
2019/07/23 11:53:07;;;;;;;6.09;3.08;;;;;;;22.98;56.50;100908.12;;;;-51
2019/07/23 11:56:07;;;;;;;5.40;2.99;;;;;;;22.99;56.56;100904.18;;;;-50
2019/07/23 11:59:07;;;;;;;5.57;3.31;;;;;;;22.99;56.59;100901.92;;;;-50
2019/07/23 12:02:07;;;;;;;7.71;3.27;;;;;;;23.00;56.50;100896.73;;;;-52
2019/07/23 12:05:07;;;;;;;3.67;2.98;;;;;;;23.01;56.45;100896.50;;;;-50
2019/07/23 12:08:08;;;;;;;3.71;3.26;;;;;;;23.01;56.48;100888.95;;;;-56
2019/07/23 12:11:07;;;;;;;3.21;2.89;;;;;;;23.02;56.42;100885.35;;;;-55
2019/07/23 12:14:07;;;;;;;5.65;3.15;;;;;;;23.02;56.50;100879.86;;;;-52
2019/07/23 12:17:07;;;;;;;4.93;3.02;;;;;;;23.00;56.44;100878.81;;;;-51
2019/07/23 12:20:07;;;;;;;4.93;3.10;;;;;;;23.00;56.29;100873.76;;;;-61
2019/07/23 12:23:08;;;;;;;6.07;3.12;;;;;;;23.01;56.37;100875.95;;;;-61
2019/07/23 12:26:08;;;;;;;7.79;3.19;;;;;;;22.99;56.39;100869.84;;;;-60
2019/07/23 12:29:08;;;;;;;4.85;3.21;;;;;;;22.99;56.58;100867.83;;;;-60
2019/07/23 12:32:07;;;;;;;4.43;3.03;;;;;;;23.00;56.51;100868.37;;;;-61
2019/07/23 12:35:07;;;;;;;6.06;3.12;;;;;;;23.02;56.38;100863.02;;;;-63
2019/07/23 12:38:07;;;;;;;6.39;3.10;;;;;;;23.01;56.27;100858.43;;;;-62
2019/07/23 12:41:07;;;;;;;5.93;2.90;;;;;;;23.01;56.37;100857.42;;;;-61
2019/07/23 12:44:07;;;;;;;7.42;3.03;;;;;;;23.00;56.30;100854.19;;;;-62
2019/07/23 12:47:08;;;;;;;4.96;3.09;;;;;;;22.98;56.32;100848.25;;;;-61
2019/07/23 12:50:07;;;;;;;5.06;2.96;;;;;;;22.98;56.33;100849.26;;;;-62
2019/07/23 12:53:07;;;;;;;5.51;2.84;;;;;;;22.97;56.25;100841.38;;;;-61
2019/07/23 12:56:07;;;;;;;4.87;3.19;;;;;;;22.97;56.25;100835.48;;;;-62
2019/07/23 12:59:07;;;;;;;5.58;3.05;;;;;;;22.97;56.26;100834.63;;;;-61
2019/07/23 13:02:07;;;;;;;7.20;3.01;;;;;;;22.97;56.17;100832.34;;;;-62
2019/07/23 13:05:07;;;;;;;4.75;2.84;;;;;;;22.96;56.21;100824.22;;;;-62
2019/07/23 13:08:07;;;;;;;10.65;3.49;;;;;;;22.95;56.39;100817.38;;;;-53
2019/07/23 13:11:08;;;;;;;4.75;2.83;;;;;;;22.98;56.41;100815.47;;;;-60
2019/07/23 13:14:07;;;;;;;8.91;2.89;;;;;;;23.00;56.48;100814.26;;;;-61
2019/07/23 13:17:07;;;;;;;8.23;3.24;;;;;;;23.01;56.51;100810.02;;;;-60
2019/07/23 13:20:08;;;;;;;6.88;3.29;;;;;;;23.03;56.60;100809.38;;;;-59
2019/07/23 13:23:07;;;;;;;12.41;3.10;;;;;;;23.05;56.92;100800.02;;;;-57
2019/07/23 13:26:07;;;;;;;10.09;3.31;;;;;;;23.05;56.85;100802.41;;;;-59
2019/07/23 13:29:08;;;;;;;11.11;3.36;;;;;;;23.07;56.59;100798.50;;;;-55
2019/07/23 13:32:07;;;;;;;8.35;3.31;;;;;;;23.08;56.51;100793.75;;;;-56
2019/07/23 13:35:07;;;;;;;11.19;3.31;;;;;;;23.10;56.44;100777.82;;;;-57
2019/07/23 13:38:07;;;;;;;9.98;3.23;;;;;;;23.11;56.49;100777.85;;;;-60
2019/07/23 13:41:07;;;;;;;10.03;3.39;;;;;;;23.11;56.72;100769.80;;;;-53
2019/07/23 13:44:07;;;;;;;7.73;3.09;;;;;;;23.12;56.68;100765.95;;;;-58
2019/07/23 13:47:08;;;;;;;51.99;4.69;;;;;;;23.14;57.06;100765.25;;;;-54
2019/07/23 13:50:08;;;;;;;9.83;3.29;;;;;;;23.15;56.65;100761.31;;;;-54
2019/07/23 13:53:08;;;;;;;8.58;3.21;;;;;;;23.16;56.73;100765.49;;;;-60
2019/07/23 13:56:07;;;;;;;6.37;2.90;;;;;;;23.17;57.02;100761.14;;;;-60
2019/07/23 13:59:07;;;;;;;17.00;3.42;;;;;;;23.20;56.93;100755.75;;;;-52
2019/07/23 14:02:07;;;;;;;23.62;3.83;;;;;;;23.22;57.33;100753.23;;;;-59
2019/07/23 14:05:07;;;;;;;14.98;3.46;;;;;;;23.24;57.60;100758.35;;;;-63
2019/07/23 14:08:08;;;;;;;13.54;3.32;;;;;;;23.24;57.12;100750.59;;;;-62
2019/07/23 14:11:07;;;;;;;10.65;3.23;;;;;;;23.24;57.12;100742.07;;;;-58
2019/07/23 14:14:07;;;;;;;12.61;3.39;;;;;;;23.25;57.07;100745.14;;;;-57
2019/07/23 14:17:07;;;;;;;10.47;3.45;;;;;;;23.24;57.17;100735.67;;;;-58
2019/07/23 14:20:07;;;;;;;11.57;2.98;;;;;;;23.25;57.13;100732.43;;;;-57
2019/07/23 14:23:07;;;;;;;7.53;3.22;;;;;;;23.24;57.16;100729.70;;;;-59
2019/07/23 14:26:08;;;;;;;15.27;3.09;;;;;;;23.25;57.11;100725.92;;;;-57
2019/07/23 14:29:08;;;;;;;11.85;3.36;;;;;;;23.27;57.23;100718.08;;;;-55
2019/07/23 14:32:07;;;;;;;7.87;3.06;;;;;;;23.28;57.24;100712.61;;;;-57
2019/07/23 14:35:08;;;;;;;7.52;3.11;;;;;;;23.29;57.32;100719.35;;;;-56
2019/07/23 14:38:07;;;;;;;8.59;3.20;;;;;;;23.30;57.36;100718.34;;;;-52
2019/07/23 14:41:08;;;;;;;10.03;3.29;;;;;;;23.31;57.29;100722.99;;;;-55
2019/07/23 14:44:07;;;;;;;11.05;3.31;;;;;;;23.32;57.05;100724.38;;;;-58
2019/07/23 14:47:07;;;;;;;13.29;3.37;;;;;;;23.34;57.32;100721.91;;;;-58
2019/07/23 14:50:07;;;;;;;9.29;3.49;;;;;;;23.34;57.30;100718.37;;;;-54
2019/07/23 14:53:07;;;;;;;12.19;2.93;;;;;;;23.33;57.17;100715.95;;;;-57
2019/07/23 14:56:07;;;;;;;11.15;3.23;;;;;;;23.35;57.26;100711.26;;;;-57
2019/07/23 14:59:07;;;;;;;11.39;3.05;;;;;;;23.35;57.29;100712.61;;;;-55
2019/07/23 15:02:07;;;;;;;10.06;3.27;;;;;;;23.37;57.19;100710.72;;;;-55
2019/07/23 15:05:07;;;;;;;8.68;3.24;;;;;;;23.35;57.07;100708.05;;;;-55
2019/07/23 15:08:07;;;;;;;8.23;3.00;;;;;;;23.35;56.81;100700.88;;;;-56
2019/07/23 15:11:07;;;;;;;8.11;3.09;;;;;;;23.33;56.86;100701.18;;;;-55
2019/07/23 15:14:07;;;;;;;8.73;2.99;;;;;;;23.33;56.86;100700.67;;;;-56
2019/07/23 15:17:07;;;;;;;8.88;3.21;;;;;;;23.32;56.86;100702.97;;;;-55
2019/07/23 15:20:08;;;;;;;6.56;3.01;;;;;;;23.31;56.79;100698.52;;;;-55
2019/07/23 15:23:07;;;;;;;5.85;3.01;;;;;;;23.29;56.95;100698.35;;;;-55
2019/07/23 15:26:07;;;;;;;21.93;3.55;;;;;;;23.28;56.93;100693.27;;;;-55
2019/07/23 15:29:08;;;;;;;7.87;3.10;;;;;;;23.29;56.82;100692.22;;;;-57
2019/07/23 15:32:07;;;;;;;11.87;3.19;;;;;;;23.30;56.85;100683.39;;;;-57
2019/07/23 15:35:07;;;;;;;10.11;2.98;;;;;;;23.30;56.88;100676.07;;;;-55
2019/07/23 15:38:07;;;;;;;9.13;3.08;;;;;;;23.31;56.85;100675.80;;;;-56
2019/07/23 15:41:08;;;;;;;7.97;2.87;;;;;;;23.30;56.77;100671.55;;;;-57
2019/07/23 15:44:07;;;;;;;7.14;3.05;;;;;;;23.31;56.81;100671.59;;;;-56
2019/07/23 15:47:08;;;;;;;8.17;2.88;;;;;;;23.31;56.92;100677.42;;;;-57
2019/07/23 15:50:07;;;;;;;7.67;3.00;;;;;;;23.31;56.92;100670.75;;;;-52
2019/07/23 15:53:07;;;;;;;9.21;3.05;;;;;;;23.31;56.86;100672.80;;;;-54
2019/07/23 15:56:08;;;;;;;8.58;2.80;;;;;;;23.32;56.89;100668.25;;;;-52
2019/07/23 15:59:07;;;;;;;11.86;3.36;;;;;;;23.32;56.85;100670.20;;;;-52
2019/07/23 16:02:08;;;;;;;9.82;2.72;;;;;;;23.32;56.96;100663.20;;;;-53
2019/07/23 16:05:07;;;;;;;7.99;2.89;;;;;;;23.33;56.91;100658.51;;;;-54
2019/07/23 16:08:07;;;;;;;7.30;2.73;;;;;;;23.34;56.82;100662.34;;;;-54
2019/07/23 16:11:07;;;;;;;7.95;2.85;;;;;;;23.34;56.90;100663.36;;;;-57
2019/07/23 16:14:07;;;;;;;7.02;2.71;;;;;;;23.34;56.84;100659.48;;;;-54
2019/07/23 16:17:07;;;;;;;8.75;2.76;;;;;;;23.33;56.78;100655.44;;;;-53
2019/07/23 16:20:07;;;;;;;8.39;3.03;;;;;;;23.34;56.90;100655.09;;;;-58
2019/07/23 16:23:07;;;;;;;5.09;2.70;;;;;;;23.34;56.83;100650.28;;;;-57
2019/07/23 16:26:07;;;;;;;9.36;2.97;;;;;;;23.32;56.72;100643.11;;;;-57
2019/07/23 16:29:08;;;;;;;13.05;2.79;;;;;;;23.32;56.75;100641.72;;;;-57
2019/07/23 16:32:07;;;;;;;7.98;2.66;;;;;;;23.31;56.74;100640.55;;;;-56
2019/07/23 16:35:07;;;;;;;6.97;2.90;;;;;;;23.31;56.72;100638.66;;;;-57
2019/07/23 16:38:08;;;;;;;6.21;2.97;;;;;;;23.30;56.70;100634.58;;;;-57
2019/07/23 16:41:08;;;;;;;6.29;2.94;;;;;;;23.29;56.69;100634.21;;;;-57
2019/07/23 16:44:07;;;;;;;5.90;2.79;;;;;;;23.28;56.66;100632.16;;;;-57